createdAt,value
2023-06-21T00:01:13.476Z,101165.50
2023-06-21T00:03:15.332Z,101157.66
2023-06-21T00:05:17.745Z,101165.88
2023-06-21T00:07:24.592Z,101155.53
2023-06-21T00:09:26.096Z,101141.56
2023-06-21T00:11:27.639Z,101141.56
2023-06-21T00:13:29.151Z,101141.75
2023-06-21T00:15:30.715Z,101135.63
2023-06-21T00:17:32.314Z,101137.53
2023-06-21T00:19:33.841Z,101137.72
2023-06-21T00:21:35.370Z,101134.28
2023-06-21T00:23:36.901Z,101140.53
2023-06-21T00:25:39.751Z,101140.72
2023-06-21T00:27:43.445Z,101135.56
2023-06-21T00:29:45.433Z,101139.28
2023-06-21T00:31:46.957Z,101135.91
2023-06-21T00:33:48.487Z,101142.22
2023-06-21T00:35:49.979Z,101138.75
2023-06-21T00:37:51.577Z,101138.84
2023-06-21T00:39:53.451Z,101142.66
2023-06-21T00:41:55.051Z,101147.25
2023-06-21T00:43:56.733Z,101148.28
2023-06-21T00:45:58.613Z,101136.81
2023-06-21T00:48:00.201Z,101139.38
2023-06-21T00:50:01.741Z,101136.81
2023-06-21T00:52:06.702Z,101139.56
2023-06-21T00:54:09.284Z,101137.84
2023-06-21T00:56:11.044Z,101143.19
2023-06-21T00:58:13.587Z,101145.78
2023-06-21T01:00:18.664Z,101161.84
2023-06-21T01:02:20.253Z,101160.38
2023-06-21T01:04:22.935Z,101161.22
2023-06-21T01:06:36.389Z,101151.31
2023-06-21T01:09:01.457Z,101157.44
2023-06-21T01:11:20.389Z,101147.78
2023-06-21T01:13:34.795Z,101159.41
2023-06-21T01:15:46.152Z,101158.66
2023-06-21T01:17:52.703Z,101164.09
2023-06-21T01:19:56.701Z,101162.34
2023-06-21T01:22:05.493Z,101166.94
2023-06-21T01:24:39.267Z,101163.31
2023-06-21T01:26:48.443Z,101162.44
2023-06-21T01:29:08.208Z,101165.13
2023-06-21T01:31:16.839Z,101175.81
2023-06-21T01:33:19.993Z,101165.13
2023-06-21T01:35:22.635Z,101172.28
2023-06-21T01:37:25.085Z,101181.16
2023-06-21T01:39:30.419Z,101183.94
2023-06-21T01:41:31.988Z,101183.06
2023-06-21T01:43:34.810Z,101179.53
2023-06-21T01:45:36.384Z,101177.72
2023-06-21T01:47:40.121Z,101181.34
2023-06-21T01:49:42.551Z,101183.94
2023-06-21T01:51:45.904Z,101187.38
2023-06-21T01:53:48.059Z,101190.06
2023-06-21T01:55:51.772Z,101192.66
2023-06-21T01:57:53.850Z,101188.06
2023-06-21T01:59:55.648Z,101187.97
2023-06-21T02:02:01.742Z,101193.25
2023-06-21T02:04:06.568Z,101192.28
2023-06-21T02:06:09.933Z,101186.00
2023-06-21T02:08:17.184Z,101193.94
2023-06-21T02:10:20.208Z,101189.44
2023-06-21T02:12:21.997Z,101191.16
2023-06-21T02:14:24.090Z,101200.06
2023-06-21T02:16:30.406Z,101194.53
2023-06-21T02:18:31.988Z,101200.66
2023-06-21T02:20:34.046Z,101205.06
2023-06-21T02:22:35.569Z,101200.47
2023-06-21T02:24:37.331Z,101202.03
2023-06-21T02:26:38.909Z,101200.22
2023-06-21T02:28:40.659Z,101204.69
2023-06-21T02:30:42.155Z,101209.97
2023-06-21T02:32:43.693Z,101208.06
2023-06-21T02:34:45.233Z,101209.69
2023-06-21T02:36:54.557Z,101199.78
2023-06-21T02:38:56.830Z,101199.69
2023-06-21T02:40:58.768Z,101196.91
2023-06-21T02:43:00.436Z,101207.53
2023-06-21T02:45:02.022Z,101203.91
2023-06-21T02:47:03.758Z,101206.53
2023-06-21T02:49:05.286Z,101213.59
2023-06-21T02:51:06.800Z,101206.44
2023-06-21T02:53:08.337Z,101210.75
2023-06-21T02:55:10.125Z,101215.16
2023-06-21T02:57:11.703Z,101216.00
2023-06-21T02:59:13.492Z,101230.16
2023-06-21T03:01:16.681Z,101225.69
2023-06-21T03:03:18.362Z,101230.09
2023-06-21T03:05:20.158Z,101229.22
2023-06-21T03:07:24.391Z,101231.91
2023-06-21T03:09:25.892Z,101233.72
2023-06-21T03:11:27.417Z,101237.25
2023-06-21T03:13:29.170Z,101237.25
2023-06-21T03:15:30.686Z,101240.88
2023-06-21T03:17:32.649Z,101249.75
2023-06-21T03:19:34.186Z,101244.41
2023-06-21T03:21:35.780Z,101247.00
2023-06-21T03:23:37.388Z,101243.28
2023-06-21T03:25:38.924Z,101248.56
2023-06-21T03:27:41.080Z,101242.25
2023-06-21T03:29:42.600Z,101243.09
2023-06-21T03:31:44.218Z,101251.22
2023-06-21T03:33:45.850Z,101254.00
2023-06-21T03:35:47.938Z,101255.91
2023-06-21T03:37:49.549Z,101256.75
2023-06-21T03:39:51.051Z,101261.16
2023-06-21T03:41:52.910Z,101270.06
2023-06-21T03:43:54.608Z,101276.34
2023-06-21T03:45:56.269Z,101274.63
2023-06-21T03:47:57.918Z,101283.59
2023-06-21T03:49:59.460Z,101288.19
2023-06-21T03:52:01.006Z,101291.81
2023-06-21T03:54:02.526Z,101307.88
2023-06-21T03:56:05.228Z,101301.75
2023-06-21T03:58:06.760Z,101312.53
2023-06-21T04:00:12.664Z,101313.56
2023-06-21T04:02:14.254Z,101305.53
2023-06-21T04:04:16.005Z,101311.75
2023-06-21T04:06:17.573Z,101320.78
2023-06-21T04:08:19.120Z,101320.78
2023-06-21T04:10:20.767Z,101324.34
2023-06-21T04:12:22.453Z,101326.09
2023-06-21T04:14:24.060Z,101335.84
2023-06-21T04:16:27.360Z,101333.09
2023-06-21T04:18:28.901Z,101329.47
2023-06-21T04:20:31.759Z,101344.31
2023-06-21T04:22:33.431Z,101345.69
2023-06-21T04:24:35.028Z,101349.84
2023-06-21T04:26:36.564Z,101357.53
2023-06-21T04:28:41.294Z,101360.88
2023-06-21T04:30:43.120Z,101358.81
2023-06-21T04:32:48.132Z,101361.41
2023-06-21T04:34:50.332Z,101353.63
2023-06-21T04:36:51.851Z,101369.88
2023-06-21T04:38:53.351Z,101378.75
2023-06-21T04:40:54.960Z,101373.22
2023-06-21T04:42:56.814Z,101375.47
2023-06-21T04:44:59.396Z,101370.88
2023-06-21T04:47:01.753Z,101369.84
2023-06-21T04:49:05.251Z,101371.28
2023-06-21T04:51:06.873Z,101374.56
2023-06-21T04:53:08.356Z,101382.25
2023-06-21T04:55:10.605Z,101381.28
2023-06-21T04:57:13.759Z,101379.47
2023-06-21T04:59:15.339Z,101378.63
2023-06-21T05:01:16.830Z,101387.44
2023-06-21T05:03:18.690Z,101393.38
2023-06-21T05:05:20.388Z,101398.66
2023-06-21T05:07:21.909Z,101400.66
2023-06-21T05:09:23.421Z,101397.28
2023-06-21T05:11:25.151Z,101399.28
2023-06-21T05:13:26.641Z,101393.75
2023-06-21T05:15:28.358Z,101392.69
2023-06-21T05:17:29.898Z,101388.97
2023-06-21T05:19:31.770Z,101387.00
2023-06-21T05:21:33.269Z,101388.53
2023-06-21T05:23:34.939Z,101385.66
2023-06-21T05:25:36.711Z,101385.50
2023-06-21T05:27:38.716Z,101388.72
2023-06-21T05:29:40.280Z,101390.06
2023-06-21T05:31:43.759Z,101390.47
2023-06-21T05:33:45.339Z,101390.28
2023-06-21T05:35:47.168Z,101387.69
2023-06-21T05:37:48.809Z,101398.84
2023-06-21T05:39:50.671Z,101408.69
2023-06-21T05:41:52.242Z,101415.59
2023-06-21T05:43:53.765Z,101413.59
2023-06-21T05:45:55.333Z,101433.91
2023-06-21T05:48:01.747Z,101426.81
2023-06-21T05:50:04.192Z,101425.28
2023-06-21T05:52:05.896Z,101423.16
2023-06-21T05:54:07.386Z,101430.41
2023-06-21T05:56:08.957Z,101433.19
2023-06-21T05:58:10.474Z,101432.31
2023-06-21T06:00:13.010Z,101434.22
2023-06-21T06:02:14.651Z,101444.38
2023-06-21T06:04:16.322Z,101449.91
2023-06-21T06:06:19.069Z,101441.19
2023-06-21T06:08:20.650Z,101450.00
2023-06-21T06:10:22.289Z,101443.31
2023-06-21T06:12:28.391Z,101443.13
2023-06-21T06:14:29.932Z,101433.19
2023-06-21T06:16:31.620Z,101439.16
2023-06-21T06:18:33.338Z,101440.69
2023-06-21T06:20:34.987Z,101443.88
2023-06-21T06:22:36.570Z,101450.66
2023-06-21T06:24:38.197Z,101450.19
2023-06-21T06:26:39.693Z,101459.88
2023-06-21T06:28:41.194Z,101459.97
2023-06-21T06:30:42.771Z,101458.34
2023-06-21T06:32:44.419Z,101459.00
2023-06-21T06:34:46.003Z,101470.16
2023-06-21T06:36:56.120Z,101468.81
2023-06-21T06:39:04.933Z,101473.72
2023-06-21T06:41:06.763Z,101470.66
2023-06-21T06:43:08.258Z,101477.75
2023-06-21T06:45:10.113Z,101486.50
2023-06-21T06:47:12.429Z,101480.88
2023-06-21T06:49:13.933Z,101486.72
2023-06-21T06:51:15.540Z,101486.72
2023-06-21T06:53:17.093Z,101493.13
2023-06-21T06:55:18.677Z,101491.13
2023-06-21T06:57:33.923Z,101488.25
2023-06-21T06:59:38.530Z,101497.06
2023-06-21T07:01:40.056Z,101501.97
2023-06-21T07:03:41.769Z,101507.63
2023-06-21T07:05:52.199Z,101507.25
2023-06-21T07:07:54.668Z,101506.19
2023-06-21T07:09:56.180Z,101510.69
2023-06-21T07:12:00.554Z,101515.69
2023-06-21T07:14:02.413Z,101513.97
2023-06-21T07:16:04.119Z,101521.25
2023-06-21T07:18:05.883Z,101531.03
2023-06-21T07:20:09.525Z,101522.03
2023-06-21T07:22:11.278Z,101530.53
2023-06-21T07:24:13.342Z,101533.03
2023-06-21T07:26:14.912Z,101535.72
2023-06-21T07:28:16.408Z,101542.22
2023-06-21T07:30:19.461Z,101557.69
2023-06-21T07:32:20.989Z,101565.28
2023-06-21T07:34:22.652Z,101556.53
2023-06-21T07:36:24.310Z,101561.63
2023-06-21T07:38:25.933Z,101564.66
2023-06-21T07:40:27.760Z,101565.25
2023-06-21T07:42:29.512Z,101562.56
2023-06-21T07:44:31.478Z,101556.34
2023-06-21T07:46:33.042Z,101561.50
2023-06-21T07:48:35.424Z,101571.78
2023-06-21T07:50:37.030Z,101564.22
2023-06-21T07:52:38.545Z,101563.72
2023-06-21T07:54:40.077Z,101556.63
2023-06-21T07:56:41.608Z,101568.31
2023-06-21T07:58:43.766Z,101563.91
2023-06-21T08:00:45.340Z,101565.09
2023-06-21T08:02:46.998Z,101572.19
2023-06-21T08:04:48.801Z,101571.81
2023-06-21T08:06:50.310Z,101569.69
2023-06-21T08:08:51.798Z,101574.00
2023-06-21T08:10:53.778Z,101581.66
2023-06-21T08:12:55.311Z,101580.59
2023-06-21T08:14:56.850Z,101582.81
2023-06-21T08:16:58.356Z,101582.94
2023-06-21T08:19:01.059Z,101572.22
2023-06-21T08:21:02.672Z,101577.66
2023-06-21T08:23:04.340Z,101581.88
2023-06-21T08:25:06.090Z,101583.59
2023-06-21T08:27:08.029Z,101580.31
2023-06-21T08:29:09.518Z,101578.09
2023-06-21T08:31:11.288Z,101581.75
2023-06-21T08:33:14.137Z,101584.53
2023-06-21T08:35:16.147Z,101579.69
2023-06-21T08:37:23.108Z,101585.22
2023-06-21T08:39:24.625Z,101589.59
2023-06-21T08:41:27.432Z,101595.03
2023-06-21T08:43:29.505Z,101596.56
2023-06-21T08:45:31.230Z,101604.72
2023-06-21T08:47:34.961Z,101600.84
2023-06-21T08:49:42.315Z,101593.41
2023-06-21T08:51:45.684Z,101594.06
2023-06-21T08:53:51.895Z,101602.59
2023-06-21T08:55:54.048Z,101601.84
2023-06-21T08:57:59.987Z,101606.84
2023-06-21T09:00:03.565Z,101604.47
2023-06-21T09:02:35.861Z,101611.66
2023-06-21T09:04:46.339Z,101610.78
2023-06-21T09:06:48.942Z,101617.91
2023-06-21T09:08:52.653Z,101621.25
2023-06-21T09:10:54.378Z,101617.34
2023-06-21T09:12:58.556Z,101615.72
2023-06-21T09:15:00.285Z,101608.19
2023-06-21T09:17:02.185Z,101618.44
2023-06-21T09:19:03.881Z,101618.78
2023-06-21T09:21:07.663Z,101623.53
2023-06-21T09:23:10.369Z,101620.41
2023-06-21T09:25:14.038Z,101624.00
2023-06-21T09:27:16.405Z,101616.13
2023-06-21T09:29:18.088Z,101626.47
2023-06-21T09:31:20.000Z,101621.94
2023-06-21T09:33:21.678Z,101626.06
2023-06-21T09:35:23.360Z,101624.53
2023-06-21T09:37:33.139Z,101623.56
2023-06-21T09:39:34.738Z,101622.38
2023-06-21T09:41:37.079Z,101630.47
2023-06-21T09:43:46.028Z,101633.38
2023-06-21T09:46:08.370Z,101633.06
2023-06-21T09:48:15.862Z,101637.94
2023-06-21T09:50:17.463Z,101636.22
2023-06-21T09:52:23.242Z,101633.28
2023-06-21T09:54:24.799Z,101641.78
2023-06-21T09:56:26.388Z,101640.38
2023-06-21T09:58:29.358Z,101636.84
2023-06-21T10:00:37.473Z,101638.34
2023-06-21T10:02:42.949Z,101632.94
2023-06-21T10:04:45.845Z,101641.25
2023-06-21T10:06:56.869Z,101639.19
2023-06-21T10:08:58.469Z,101641.91
2023-06-21T10:11:02.360Z,101643.19
2023-06-21T10:13:04.182Z,101649.44
2023-06-21T10:15:07.109Z,101651.69
2023-06-21T10:17:09.517Z,101648.97
2023-06-21T10:19:11.440Z,101649.53
2023-06-21T10:21:14.175Z,101655.06
2023-06-21T10:23:16.760Z,101653.47
2023-06-21T10:25:21.392Z,101655.13
2023-06-21T10:27:23.405Z,101651.25
2023-06-21T10:29:25.193Z,101651.25
2023-06-21T10:31:30.662Z,101656.34
2023-06-21T10:33:35.085Z,101659.75
2023-06-21T10:35:43.779Z,101663.66
2023-06-21T10:37:50.664Z,101665.97
2023-06-21T10:40:09.414Z,101667.81
2023-06-21T10:42:12.749Z,101675.31
2023-06-21T10:44:19.963Z,101666.25
2023-06-21T10:46:23.755Z,101671.72
2023-06-21T10:48:26.378Z,101674.56
2023-06-21T10:50:28.928Z,101664.88
2023-06-21T10:52:31.750Z,101665.28
2023-06-21T10:54:34.042Z,101664.22
2023-06-21T10:56:36.984Z,101672.09
2023-06-21T10:58:39.072Z,101674.59
2023-06-21T11:00:44.068Z,101681.31
2023-06-21T11:02:46.081Z,101679.53
2023-06-21T11:05:12.762Z,101688.13
2023-06-21T11:07:14.464Z,101689.44
2023-06-21T11:09:17.939Z,101682.53
2023-06-21T11:11:38.041Z,101682.66
2023-06-21T11:13:40.874Z,101688.94
2023-06-21T11:15:47.220Z,101689.19
2023-06-21T11:17:58.679Z,101691.56
2023-06-21T11:20:19.387Z,101690.97
2023-06-21T11:22:27.791Z,101698.13
2023-06-21T11:24:29.467Z,101688.97
2023-06-21T11:26:54.572Z,101705.13
2023-06-21T11:28:56.104Z,101704.88
2023-06-21T11:31:11.257Z,101704.13
2023-06-21T11:33:20.582Z,101709.34
2023-06-21T11:35:37.611Z,101709.31
2023-06-21T11:37:48.932Z,101714.78
2023-06-21T11:39:58.352Z,101712.53
2023-06-21T11:42:01.195Z,101716.19
2023-06-21T11:44:02.829Z,101729.94
2023-06-21T11:46:04.745Z,101723.81
2023-06-21T11:48:10.048Z,101716.81
2023-06-21T11:50:15.075Z,101726.03
2023-06-21T11:52:18.508Z,101734.00
2023-06-21T11:54:33.657Z,101730.16
2023-06-21T11:56:35.699Z,101730.81
2023-06-21T11:58:37.540Z,101729.91
2023-06-21T12:00:39.152Z,101729.63
2023-06-21T12:02:40.815Z,101735.47
2023-06-21T12:04:43.393Z,101735.25
2023-06-21T12:06:45.014Z,101733.34
2023-06-21T12:08:46.718Z,101737.69
2023-06-21T12:10:49.398Z,101741.63
2023-06-21T12:12:50.996Z,101742.41
2023-06-21T12:14:52.496Z,101743.91
2023-06-21T12:16:54.034Z,101738.03
2023-06-21T12:18:56.395Z,101749.53
2023-06-21T12:21:01.964Z,101751.97
2023-06-21T12:23:03.543Z,101753.69
2023-06-21T12:25:05.661Z,101757.38
2023-06-21T12:27:07.269Z,101760.59
2023-06-21T12:29:10.178Z,101761.09
2023-06-21T12:31:17.471Z,101756.41
2023-06-21T12:33:19.373Z,101760.47
2023-06-21T12:35:20.922Z,101763.78
2023-06-21T12:37:22.705Z,101761.44
2023-06-21T12:39:24.480Z,101765.59
2023-06-21T12:41:28.421Z,101759.09
2023-06-21T12:43:44.081Z,101770.03
2023-06-21T12:45:48.368Z,101773.25
2023-06-21T12:47:50.649Z,101778.81
2023-06-21T12:50:00.551Z,101780.66
2023-06-21T12:52:03.361Z,101775.38
2023-06-21T12:54:12.379Z,101777.47
2023-06-21T12:56:14.294Z,101776.09
2023-06-21T12:58:17.202Z,101771.78
2023-06-21T13:00:19.066Z,101778.06
2023-06-21T13:02:27.504Z,101776.59
2023-06-21T13:04:29.624Z,101774.00
2023-06-21T13:06:31.194Z,101773.88
2023-06-21T13:08:35.160Z,101780.53
2023-06-21T13:10:37.610Z,101781.28
2023-06-21T13:12:39.344Z,101777.72
2023-06-21T13:14:40.878Z,101779.19
2023-06-21T13:16:42.410Z,101772.75
2023-06-21T13:18:49.036Z,101784.09
2023-06-21T13:20:52.664Z,101784.94
2023-06-21T13:22:54.812Z,101777.56
2023-06-21T13:24:56.325Z,101784.44
2023-06-21T13:26:59.016Z,101777.81
2023-06-21T13:29:00.623Z,101781.38
2023-06-21T13:31:02.625Z,101777.22
2023-06-21T13:33:04.260Z,101779.91
2023-06-21T13:35:07.229Z,101776.44
2023-06-21T13:37:08.784Z,101780.28
2023-06-21T13:39:10.297Z,101777.69
2023-06-21T13:41:12.076Z,101779.28
2023-06-21T13:43:13.620Z,101773.63
2023-06-21T13:45:15.204Z,101787.28
2023-06-21T13:47:16.825Z,101783.09
2023-06-21T13:49:19.843Z,101779.53
2023-06-21T13:51:22.610Z,101789.88
2023-06-21T13:53:24.179Z,101783.13
2023-06-21T13:55:25.843Z,101781.03
2023-06-21T13:57:28.370Z,101775.50
2023-06-21T13:59:29.910Z,101777.22
2023-06-21T14:01:31.426Z,101783.50
2023-06-21T14:03:32.997Z,101770.69
2023-06-21T14:05:35.738Z,101773.41
2023-06-21T14:07:38.465Z,101769.81
2023-06-21T14:09:40.804Z,101780.91
2023-06-21T14:11:42.373Z,101774.75
2023-06-21T14:13:44.520Z,101780.44
2023-06-21T14:15:46.019Z,101771.91
2023-06-21T14:17:47.620Z,101778.44
2023-06-21T14:19:49.400Z,101773.88
2023-06-21T14:21:51.039Z,101773.28
2023-06-21T14:23:52.680Z,101775.38
2023-06-21T14:25:54.304Z,101774.13
2023-06-21T14:27:55.846Z,101774.34
2023-06-21T14:30:02.181Z,101777.44
2023-06-21T14:32:04.041Z,101775.13
2023-06-21T14:34:05.782Z,101773.97
2023-06-21T14:36:07.359Z,101773.00
2023-06-21T14:38:09.201Z,101784.81
2023-06-21T14:40:10.926Z,101774.97
2023-06-21T14:42:12.829Z,101774.72
2023-06-21T14:44:14.419Z,101779.16
2023-06-21T14:46:16.025Z,101771.88
2023-06-21T14:48:17.780Z,101772.41
2023-06-21T14:50:20.214Z,101776.22
2023-06-21T14:52:22.153Z,101781.50
2023-06-21T14:54:23.828Z,101782.16
2023-06-21T14:56:25.468Z,101779.78
2023-06-21T14:58:26.975Z,101777.03
2023-06-21T15:00:28.842Z,101769.16
2023-06-21T15:02:31.022Z,101770.88
2023-06-21T15:04:32.704Z,101773.47
2023-06-21T15:06:34.425Z,101768.53
2023-06-21T15:08:35.990Z,101769.16
2023-06-21T15:10:37.513Z,101767.09
2023-06-21T15:12:48.554Z,101772.53
2023-06-21T15:14:58.066Z,101769.22
2023-06-21T15:16:59.621Z,101770.81
2023-06-21T15:19:01.686Z,101766.88
2023-06-21T15:21:03.296Z,101769.69
2023-06-21T15:23:05.141Z,101761.66
2023-06-21T15:25:06.958Z,101768.47
2023-06-21T15:27:08.477Z,101769.69
2023-06-21T15:29:10.467Z,101753.19
2023-06-21T15:31:12.150Z,101767.44
2023-06-21T15:33:13.761Z,101770.78
2023-06-21T15:35:15.368Z,101768.94
2023-06-21T15:37:17.923Z,101772.53
2023-06-21T15:39:19.479Z,101772.75
2023-06-21T15:41:20.994Z,101763.91
2023-06-21T15:43:22.506Z,101768.22
2023-06-21T15:45:24.016Z,101770.06
2023-06-21T15:47:25.548Z,101770.94
2023-06-21T15:49:27.176Z,101769.34
2023-06-21T15:51:29.191Z,101763.91
2023-06-21T15:53:30.725Z,101765.50
2023-06-21T15:55:32.399Z,101761.94
2023-06-21T15:57:34.986Z,101767.13
2023-06-21T15:59:37.605Z,101768.84
2023-06-21T16:01:39.297Z,101769.44
2023-06-21T16:03:43.467Z,101769.91
2023-06-21T16:05:45.191Z,101759.44
2023-06-21T16:07:46.679Z,101766.25
2023-06-21T16:09:48.178Z,101776.28
2023-06-21T16:11:49.771Z,101772.84
2023-06-21T16:13:51.347Z,101776.16
2023-06-21T16:15:52.874Z,101780.22
2023-06-21T16:17:54.438Z,101782.06
2023-06-21T16:19:56.025Z,101786.63
2023-06-21T16:21:58.148Z,101781.44
2023-06-21T16:24:00.505Z,101792.53
2023-06-21T16:26:02.194Z,101787.72
2023-06-21T16:28:03.781Z,101786.63
2023-06-21T16:30:06.273Z,101784.53
2023-06-21T16:32:10.660Z,101785.66
2023-06-21T16:34:12.352Z,101790.47
2023-06-21T16:36:13.969Z,101780.41
2023-06-21T16:38:15.582Z,101781.38
2023-06-21T16:40:17.727Z,101786.66
2023-06-21T16:42:19.220Z,101785.44
2023-06-21T16:44:20.764Z,101791.84
2023-06-21T16:46:22.464Z,101785.44
2023-06-21T16:48:24.226Z,101785.69
2023-06-21T16:50:26.075Z,101778.88
2023-06-21T16:52:27.586Z,101781.09
2023-06-21T16:54:29.162Z,101784.78
2023-06-21T16:56:31.165Z,101786.38
2023-06-21T16:58:33.224Z,101797.06
2023-06-21T17:00:36.011Z,101793.75
2023-06-21T17:02:37.711Z,101792.53
2023-06-21T17:04:39.300Z,101797.31
2023-06-21T17:06:40.836Z,101790.81
2023-06-21T17:08:42.337Z,101785.03
2023-06-21T17:10:44.117Z,101792.53
2023-06-21T17:12:46.547Z,101791.22
2023-06-21T17:14:48.165Z,101802.66
2023-06-21T17:16:49.876Z,101798.25
2023-06-21T17:18:52.882Z,101795.25
2023-06-21T17:20:54.430Z,101797.09
2023-06-21T17:22:56.005Z,101798.72
2023-06-21T17:24:58.124Z,101796.75
2023-06-21T17:26:59.687Z,101797.63
2023-06-21T17:29:01.231Z,101795.66
2023-06-21T17:31:02.818Z,101804.41
2023-06-21T17:33:07.639Z,101805.91
2023-06-21T17:35:14.982Z,101803.19
2023-06-21T17:37:16.699Z,101800.44
2023-06-21T17:39:18.426Z,101801.53
2023-06-21T17:41:19.941Z,101806.91
2023-06-21T17:43:21.527Z,101797.44
2023-06-21T17:45:23.311Z,101801.63
2023-06-21T17:47:24.978Z,101802.25
2023-06-21T17:49:26.609Z,101804.72
2023-06-21T17:51:28.423Z,101803.97
2023-06-21T17:53:29.981Z,101806.19
2023-06-21T17:55:31.943Z,101806.31
2023-06-21T17:57:33.545Z,101814.06
2023-06-21T17:59:35.310Z,101820.84
2023-06-21T18:01:36.904Z,101821.09
2023-06-21T18:03:38.702Z,101821.94
2023-06-21T18:05:40.836Z,101817.41
2023-06-21T18:07:42.676Z,101825.88
2023-06-21T18:09:44.222Z,101829.19
2023-06-21T18:11:45.873Z,101826.97
2023-06-21T18:13:47.762Z,101831.63
2023-06-21T18:15:49.259Z,101830.88
2023-06-21T18:17:50.888Z,101828.63
2023-06-21T18:19:52.504Z,101836.13
2023-06-21T18:22:03.759Z,101838.09
2023-06-21T18:24:16.111Z,101839.41
2023-06-21T18:26:17.763Z,101844.09
2023-06-21T18:28:19.317Z,101829.59
2023-06-21T18:30:20.911Z,101831.53
2023-06-21T18:32:22.426Z,101843.69
2023-06-21T18:34:24.131Z,101842.31
2023-06-21T18:36:25.677Z,101849.69
2023-06-21T18:38:29.025Z,101844.41
2023-06-21T18:40:30.944Z,101857.25
2023-06-21T18:42:32.861Z,101859.22
2023-06-21T18:44:34.360Z,101865.06
2023-06-21T18:46:35.873Z,101864.03
2023-06-21T18:48:37.412Z,101869.66
2023-06-21T18:50:38.983Z,101866.44
2023-06-21T18:52:40.521Z,101877.72
2023-06-21T18:54:42.244Z,101889.94
2023-06-21T18:56:45.896Z,101894.19
2023-06-21T18:58:55.924Z,101900.13
2023-06-21T19:00:57.475Z,101897.13
2023-06-21T19:02:59.136Z,101894.94
2023-06-21T19:05:00.978Z,101896.34
2023-06-21T19:07:02.554Z,101893.13
2023-06-21T19:09:06.857Z,101896.38
2023-06-21T19:11:08.418Z,101899.59
2023-06-21T19:13:11.773Z,101904.56
2023-06-21T19:15:13.455Z,101900.66
2023-06-21T19:17:14.991Z,101890.41
2023-06-21T19:19:16.507Z,101892.88
2023-06-21T19:21:18.204Z,101889.69
2023-06-21T19:23:19.787Z,101884.16
2023-06-21T19:25:21.392Z,101878.22
2023-06-21T19:27:23.144Z,101890.41
2023-06-21T19:29:24.710Z,101900.75
2023-06-21T19:31:26.554Z,101901.06
2023-06-21T19:33:28.285Z,101900.28
2023-06-21T19:35:32.944Z,101905.03
2023-06-21T19:37:34.478Z,101911.88
2023-06-21T19:39:36.761Z,101919.63
2023-06-21T19:41:38.404Z,101918.09
2023-06-21T19:43:39.969Z,101934.56
2023-06-21T19:45:41.732Z,101927.91
2023-06-21T19:47:43.273Z,101928.97
2023-06-21T19:49:46.369Z,101925.81
2023-06-21T19:51:47.922Z,101928.69
2023-06-21T19:53:49.456Z,101938.03
2023-06-21T19:55:50.954Z,101938.34
2023-06-21T19:57:52.540Z,101939.88
2023-06-21T19:59:54.051Z,101935.75
2023-06-21T20:01:55.664Z,101941.63
2023-06-21T20:03:57.236Z,101933.94
2023-06-21T20:05:58.768Z,101937.75
2023-06-21T20:08:00.564Z,101938.91
2023-06-21T20:10:02.113Z,101937.38
2023-06-21T20:12:03.820Z,101934.19
2023-06-21T20:14:05.587Z,101934.63
2023-06-21T20:16:10.504Z,101936.75
2023-06-21T20:18:12.103Z,101937.13
2023-06-21T20:20:13.681Z,101937.50
2023-06-21T20:22:16.716Z,101938.53
2023-06-21T20:24:18.248Z,101935.16
2023-06-21T20:26:19.891Z,101933.72
2023-06-21T20:28:21.607Z,101936.59
2023-06-21T20:30:23.266Z,101946.09
2023-06-21T20:32:24.855Z,101942.81
2023-06-21T20:34:26.463Z,101940.28
2023-06-21T20:36:28.073Z,101943.25
2023-06-21T20:38:32.006Z,101949.78
2023-06-21T20:40:33.785Z,101959.00
2023-06-21T20:42:35.417Z,101949.34
2023-06-21T20:44:39.053Z,101945.00
2023-06-21T20:46:45.909Z,101946.13
2023-06-21T20:48:54.170Z,101948.03
2023-06-21T20:50:55.810Z,101942.06
2023-06-21T20:52:57.366Z,101938.69
2023-06-21T20:54:58.855Z,101938.09
2023-06-21T20:57:00.430Z,101943.38
2023-06-21T20:59:01.935Z,101941.81
2023-06-21T21:01:03.674Z,101936.78
2023-06-21T21:03:05.765Z,101939.75
2023-06-21T21:05:07.675Z,101944.34
2023-06-21T21:07:09.179Z,101946.50
2023-06-21T21:09:10.669Z,101954.63
2023-06-21T21:11:13.916Z,101960.19
2023-06-21T21:13:15.478Z,101956.97
2023-06-21T21:15:17.046Z,101956.38
2023-06-21T21:17:18.550Z,101958.53
2023-06-21T21:19:20.061Z,101959.56
2023-06-21T21:21:22.098Z,101968.75
2023-06-21T21:23:23.675Z,101962.59
2023-06-21T21:25:26.233Z,101965.38
2023-06-21T21:27:27.820Z,101966.63
2023-06-21T21:29:29.382Z,101967.56
2023-06-21T21:31:31.637Z,101975.09
2023-06-21T21:33:33.170Z,101977.75
2023-06-21T21:35:34.753Z,101974.22
2023-06-21T21:37:36.300Z,101980.78
2023-06-21T21:39:37.814Z,101971.16
2023-06-21T21:41:39.429Z,101980.25
2023-06-21T21:43:40.958Z,101976.88
2023-06-21T21:45:42.537Z,101981.47
2023-06-21T21:47:44.090Z,101979.88
2023-06-21T21:49:45.735Z,101981.94
2023-06-21T21:51:47.452Z,101983.06
2023-06-21T21:53:48.952Z,101985.97
2023-06-21T21:55:51.024Z,101986.91
2023-06-21T21:57:53.106Z,101986.38
2023-06-21T21:59:54.631Z,101981.25
2023-06-21T22:01:56.175Z,101991.34
2023-06-21T22:03:58.080Z,101996.94
2023-06-21T22:05:59.750Z,101999.78
2023-06-21T22:08:01.272Z,102000.03
2023-06-21T22:10:03.026Z,102002.00
2023-06-21T22:12:08.017Z,102008.41
2023-06-21T22:14:10.869Z,101996.97
2023-06-21T22:16:13.542Z,101999.69
2023-06-21T22:18:15.112Z,101998.94
2023-06-21T22:20:17.880Z,102003.50
2023-06-21T22:22:20.092Z,101998.31
2023-06-21T22:24:22.710Z,102008.41
2023-06-21T22:26:24.209Z,102005.94
2023-06-21T22:28:25.721Z,102003.34
2023-06-21T22:30:27.811Z,102000.75
2023-06-21T22:32:31.257Z,102001.84
2023-06-21T22:34:32.876Z,102003.72
2023-06-21T22:36:34.487Z,102003.97
2023-06-21T22:38:38.797Z,102002.28
2023-06-21T22:40:40.616Z,101999.84
2023-06-21T22:42:42.121Z,101999.13
2023-06-21T22:44:43.625Z,101994.03
2023-06-21T22:46:45.121Z,102004.97
2023-06-21T22:48:46.636Z,102010.63
2023-06-21T22:50:48.874Z,102010.94
2023-06-21T22:52:52.553Z,102012.25
2023-06-21T22:54:54.072Z,102012.69
2023-06-21T22:56:55.537Z,102012.88
2023-06-21T22:58:57.093Z,102018.34
2023-06-21T23:00:58.731Z,102022.91
2023-06-21T23:03:04.562Z,102020.34
2023-06-21T23:05:07.093Z,102011.66
2023-06-21T23:07:09.761Z,102010.06
2023-06-21T23:09:11.283Z,102014.84
2023-06-21T23:11:13.839Z,102016.88
2023-06-21T23:13:15.388Z,102023.31
2023-06-21T23:15:20.240Z,102025.19
2023-06-21T23:17:22.790Z,102024.44
2023-06-21T23:19:24.339Z,102036.22
2023-06-21T23:21:26.120Z,102036.28
2023-06-21T23:23:30.182Z,102034.59